Relevés horaires Bierset (Belgique)


Relevés horaires à Bierset - Mardi 16 Janv. 2024
Heure UTC1 Température [°C] Vent [km/h] Hum. [%] Pres.4 [hPa] Visi. [Km] Nébu. [octa] Préc.5 [mm] Cond.
2m. Res. Ros. Dir.2 Vit. Moy. Raf.3
23:00 -3.8 -7 -6.9 S 7.4 7.4 14.8 79 1005(-2.2/3h) 30 5/8 -- --
22:00 -3.4 -5.7 -6.6 SSE 5.6 7.4 9.3 78 1005.6(-2.4/3h) 30 5/8 -- --
21:00 -3.0 -6 -6.4 S 7.4 9.3 13.0 77 1006.8(-1.5/3h) 30 5/8 -- --
20:00 -2.6 -5.6 -6.2 S 7.4 9.3 13.0 76 1007.2(-1.7/3h) 30 4/8 -- --
19:00 -2.2 -5.1 -6.1 S 7.4 7.4 13.0 75 1008(-1.0/3h) 30 2/8 -- --
18:00 -1.7 -3.8 -6.0 S 5.6 9.3 14.8 72 1008.2(-0.7/3h) 30 1/8 0.3/12h
--
17:00 -1.5 -3.6 -5.7 S 5.6 7.4 14.8 73 1008.8(-0.9/3h) 30 1/8 -- --
16:00 -0.9 -2.9 -5.5 SSO 5.6 7.4 9.3 71 1008.9(-1.2/3h) 30 2/8 -- --
15:00 -0.2 -2.8 -5.3 SO 7.4 9.3 13.0 68 1008.8(-1.9/3h) 30 1/8 -- --
14:00 0.1 -2.4 -5.2 OSO 7.4 9.3 13.0 67 1009.7(-1.5/3h) 30 2/8 -- --
13:00 0.3 -2.2 -4.5 SO 7.4 9.3 13.0 70 1010(-1.5/3h) 30 1/8 -- --
12:00 -0.3 -2.9 -4.6 SO 7.4 11.1 14.8 73 1010.8(-0.9/3h) 30 1/8 0.3/6h
--
11:00 -0.9 -3.6 -4.8 SO 7.4 9.3 14.8 75 1011.2(-0.4/3h) 25 4/8 -- --
10:00 -1.7 -5.1 -5.1 SO 9.3 11.1 14.8 78 1011.6(0.1/3h) 20 6/8 -- --
09:00 -2.3 -5.9 -5.1 SO 9.3 9.3 13.0 81 1011.9(0.3/3h) 20 5/8 -- --
08:00 -3.1 -6.8 -5.4 SSO 9.3 9.3 13.0 84 1011.9(0.0/3h) 18 4/8 -- --
07:00 -2.9 -6.6 -5.2 SSO 9.3 9.3 13.0 84 1011.6(-0.7/3h) 40 3/8 -- --
06:00 -2.8 -5.8 -5.0 SO 7.4 11.1 14.8 85 1011.6(-0.9/3h) 40 3/8 0/12h
--
05:00 -2.3 -5.2 -4.5 SO 7.4 9.3 13.0 85 1011.8(-0.7/3h) 40 4/8 -- --
04:00 -2.0 -5.5 -4.1 SO 9.3 11.1 14.8 85 1012.2(0.1/3h) 40 4/8 -- --
03:00 -1.0 -4.3 -3.6 OSO 9.3 11.1 14.8 82 1012.3(0.5/3h) 40 7/8 -- --
02:00 -0.8 -4.1 -3.3 OSO 9.3 11.1 14.8 83 1012.4(1.0/3h) 40 6/8 -- --
01:00 -0.6 -4.3 -2.9 OSO 11.1 11.1 14.8 84 1012(0.8/3h) 40 6/8 -- --
00:00 -0.6 -4.3 -2.9 OSO 11.1 13.0 18.5 84 1011.8(0.9/3h) 40 6/8 0/6h
0.5/24h
Etat du ciel inchangé

1 Coordinated Universal Time. Actuellement il est 05:00 locale et 03:00 UTC.

2 Le vent souffle depuis la direction indiquée vers la direction oposée.

3 Les rafales max. sont disponible 40 min après l'heure du relevé.

4 Pour les stations d'altitude (plus de 600m) le géopotentiel du niveau le plus proche de la pression obligatoire est indiqué.

5 Les stations disposant d'un diffuseur peuvent indiquer "trace". Cela signifie que des précipitations ont touchés le sol mais que la quantité est inférieure à 0.1 mm.

Récapitulatif de la journée
Température [°C] Vent [km/h] Ensoleillement4 [h] Precipitations totale5 [mm] Pression [Hpa]
Min1 Max.2 Moy.3 Max. Min Max.
-3.0 0.5 9.6 18.5 0 h 0 min 0.3 1005.0 1012.4

1 Température minimale relevée entre 18:00 UTC la veille et 18:00 UTC le jour donné.

2 Température maximale relevée entre 06:00 UTC le jour donné et 06:00 UTC le lendemain.

3 Vent moyen de la journée basé sur les relevés horaires.

4 Ensoleillement en heures relevé entre 06:00 UTC la veille et 06:00 UTC le jour donné.

5 Précipitations totales tombées entre 06:00 UTC la jour donné et 06:00 UTC le lendemain.

Graphiques horaires